ZA-0050 weather

Warrenton Airport
Warrenton, Northern Cape, South Africa

Public forecast

Using degrees Celsius for public forecast. Weather courtesy of forecast.io.

Closest aviation weather report (METAR) to Warrenton Airport

Closest report is Kimberley Airport, 41.3 nm (76.6 km) S. Retrieved 2019/10/23 19:00 UTC (15 minutes ago):

FAKM 231900Z AUTO 23006KT //// // ////// 17/M07 Q1013

Closest aviation forecast (TAF) to Warrenton Airport

Forecast is more than 12 hours old.

Closest forecast is Kimberley Airport, 41.3 nm (76.6 km) S. Retrieved 2018/10/29 07:06 UTC (12 months ago):

TAF TAF FAKM 290600Z 2907/2919 33015KT CAVOK TX38/2913Z TN28/2918Z